sensor_id;sensor_type;location;lat;lon;timestamp;P1;durP1;ratioP1;P2;durP2;ratioP2
60917;SDS011;46792;38.854;-9.384;2023-12-07T00:01:07;9.00;;;5.57;;
60917;SDS011;46792;38.854;-9.384;2023-12-07T00:03:08;12.23;;;6.35;;
60917;SDS011;46792;38.854;-9.384;2023-12-07T00:05:08;9.52;;;6.90;;
60917;SDS011;46792;38.854;-9.384;2023-12-07T00:07:09;10.23;;;6.50;;
60917;SDS011;46792;38.854;-9.384;2023-12-07T00:09:10;10.95;;;7.32;;
60917;SDS011;46792;38.854;-9.384;2023-12-07T00:11:10;12.20;;;8.20;;
60917;SDS011;46792;38.854;-9.384;2023-12-07T00:13:11;12.52;;;7.95;;
60917;SDS011;46792;38.854;-9.384;2023-12-07T00:15:12;18.88;;;8.18;;
60917;SDS011;46792;38.854;-9.384;2023-12-07T00:17:12;16.13;;;8.57;;
60917;SDS011;46792;38.854;-9.384;2023-12-07T00:19:14;19.50;;;11.40;;
60917;SDS011;46792;38.854;-9.384;2023-12-07T00:21:15;14.80;;;9.40;;
60917;SDS011;46792;38.854;-9.384;2023-12-07T00:23:15;15.55;;;9.50;;
60917;SDS011;46792;38.854;-9.384;2023-12-07T00:25:16;11.52;;;7.50;;
60917;SDS011;46792;38.854;-9.384;2023-12-07T00:27:17;14.88;;;8.07;;
60917;SDS011;46792;38.854;-9.384;2023-12-07T00:29:17;12.15;;;8.38;;
60917;SDS011;46792;38.854;-9.384;2023-12-07T00:31:18;14.07;;;7.60;;
60917;SDS011;46792;38.854;-9.384;2023-12-07T00:33:20;10.52;;;6.70;;
60917;SDS011;46792;38.854;-9.384;2023-12-07T00:35:22;10.82;;;7.32;;
60917;SDS011;46792;38.854;-9.384;2023-12-07T00:37:22;12.00;;;7.32;;
60917;SDS011;46792;38.854;-9.384;2023-12-07T00:39:23;11.32;;;7.57;;
60917;SDS011;46792;38.854;-9.384;2023-12-07T00:41:23;14.35;;;7.07;;
60917;SDS011;46792;38.854;-9.384;2023-12-07T00:43:24;13.27;;;8.35;;
60917;SDS011;46792;38.854;-9.384;2023-12-07T00:45:26;7.45;;;6.55;;
60917;SDS011;46792;38.854;-9.384;2023-12-07T00:47:26;12.48;;;6.53;;
60917;SDS011;46792;38.854;-9.384;2023-12-07T00:49:27;8.50;;;5.70;;
60917;SDS011;46792;38.854;-9.384;2023-12-07T00:51:27;10.90;;;5.38;;
60917;SDS011;46792;38.854;-9.384;2023-12-07T00:53:28;6.72;;;5.15;;
60917;SDS011;46792;38.854;-9.384;2023-12-07T00:55:29;8.95;;;5.13;;
60917;SDS011;46792;38.854;-9.384;2023-12-07T00:57:29;8.32;;;4.70;;
60917;SDS011;46792;38.854;-9.384;2023-12-07T00:59:30;18.88;;;5.18;;
60917;SDS011;46792;38.854;-9.384;2023-12-07T01:01:33;8.85;;;4.35;;
60917;SDS011;46792;38.854;-9.384;2023-12-07T01:03:34;16.23;;;4.53;;
60917;SDS011;46792;38.854;-9.384;2023-12-07T01:05:35;10.60;;;4.72;;
60917;SDS011;46792;38.854;-9.384;2023-12-07T01:07:36;7.00;;;4.50;;
60917;SDS011;46792;38.854;-9.384;2023-12-07T01:09:37;9.10;;;4.50;;
60917;SDS011;46792;38.854;-9.384;2023-12-07T01:11:37;8.32;;;5.03;;
60917;SDS011;46792;38.854;-9.384;2023-12-07T01:13:38;12.25;;;5.95;;
60917;SDS011;46792;38.854;-9.384;2023-12-07T01:15:38;15.48;;;6.68;;
60917;SDS011;46792;38.854;-9.384;2023-12-07T01:17:39;13.63;;;6.18;;
60917;SDS011;46792;38.854;-9.384;2023-12-07T01:19:40;12.27;;;5.80;;
60917;SDS011;46792;38.854;-9.384;2023-12-07T01:21:41;7.35;;;4.80;;
60917;SDS011;46792;38.854;-9.384;2023-12-07T01:23:42;8.23;;;5.82;;
60917;SDS011;46792;38.854;-9.384;2023-12-07T01:25:42;9.00;;;5.55;;
60917;SDS011;46792;38.854;-9.384;2023-12-07T01:27:43;11.38;;;6.10;;
60917;SDS011;46792;38.854;-9.384;2023-12-07T01:29:44;15.82;;;7.00;;
60917;SDS011;46792;38.854;-9.384;2023-12-07T01:31:44;10.80;;;6.97;;
60917;SDS011;46792;38.854;-9.384;2023-12-07T01:33:45;18.05;;;7.22;;
60917;SDS011;46792;38.854;-9.384;2023-12-07T01:35:46;11.63;;;7.18;;
60917;SDS011;46792;38.854;-9.384;2023-12-07T01:37:46;10.35;;;5.80;;
60917;SDS011;46792;38.854;-9.384;2023-12-07T01:39:47;13.65;;;6.15;;
60917;SDS011;46792;38.854;-9.384;2023-12-07T01:41:49;11.35;;;6.18;;
60917;SDS011;46792;38.854;-9.384;2023-12-07T01:43:51;17.10;;;7.90;;
60917;SDS011;46792;38.854;-9.384;2023-12-07T01:45:52;14.93;;;7.75;;
60917;SDS011;46792;38.854;-9.384;2023-12-07T01:47:56;11.95;;;7.00;;
60917;SDS011;46792;38.854;-9.384;2023-12-07T01:49:59;12.55;;;7.82;;
60917;SDS011;46792;38.854;-9.384;2023-12-07T01:52:01;14.25;;;8.18;;
60917;SDS011;46792;38.854;-9.384;2023-12-07T01:54:03;13.10;;;6.75;;
60917;SDS011;46792;38.854;-9.384;2023-12-07T01:56:03;19.52;;;6.97;;
60917;SDS011;46792;38.854;-9.384;2023-12-07T01:58:04;16.90;;;7.13;;
60917;SDS011;46792;38.854;-9.384;2023-12-07T02:00:10;9.15;;;6.28;;
60917;SDS011;46792;38.854;-9.384;2023-12-07T02:02:14;12.13;;;5.55;;
60917;SDS011;46792;38.854;-9.384;2023-12-07T02:04:15;12.40;;;5.30;;
60917;SDS011;46792;38.854;-9.384;2023-12-07T02:06:16;6.32;;;4.60;;
60917;SDS011;46792;38.854;-9.384;2023-12-07T02:08:17;13.20;;;4.32;;
60917;SDS011;46792;38.854;-9.384;2023-12-07T02:10:18;7.93;;;4.28;;
60917;SDS011;46792;38.854;-9.384;2023-12-07T02:12:19;8.25;;;5.03;;
60917;SDS011;46792;38.854;-9.384;2023-12-07T02:14:20;11.60;;;5.45;;
60917;SDS011;46792;38.854;-9.384;2023-12-07T02:16:23;11.02;;;4.97;;
60917;SDS011;46792;38.854;-9.384;2023-12-07T02:18:46;14.80;;;5.53;;
60917;SDS011;46792;38.854;-9.384;2023-12-07T02:23:25;8.43;;;4.80;;
60917;SDS011;46792;38.854;-9.384;2023-12-07T02:25:32;8.45;;;5.05;;
60917;SDS011;46792;38.854;-9.384;2023-12-07T02:27:41;15.05;;;5.57;;
60917;SDS011;46792;38.854;-9.384;2023-12-07T02:29:43;7.47;;;4.70;;
60917;SDS011;46792;38.854;-9.384;2023-12-07T02:31:43;9.07;;;3.70;;
60917;SDS011;46792;38.854;-9.384;2023-12-07T02:33:44;7.68;;;1.30;;
60917;SDS011;46792;38.854;-9.384;2023-12-07T02:35:45;10.23;;;2.13;;
60917;SDS011;46792;38.854;-9.384;2023-12-07T02:37:48;3.10;;;1.33;;
60917;SDS011;46792;38.854;-9.384;2023-12-07T02:39:50;6.18;;;1.48;;
60917;SDS011;46792;38.854;-9.384;2023-12-07T02:41:53;9.85;;;1.55;;
60917;SDS011;46792;38.854;-9.384;2023-12-07T02:43:55;5.32;;;1.45;;
60917;SDS011;46792;38.854;-9.384;2023-12-07T02:45:57;5.90;;;1.50;;
60917;SDS011;46792;38.854;-9.384;2023-12-07T02:47:58;10.82;;;1.90;;
60917;SDS011;46792;38.854;-9.384;2023-12-07T02:49:59;13.70;;;2.03;;
60917;SDS011;46792;38.854;-9.384;2023-12-07T02:52:00;15.77;;;1.67;;
60917;SDS011;46792;38.854;-9.384;2023-12-07T02:54:00;10.10;;;2.00;;
60917;SDS011;46792;38.854;-9.384;2023-12-07T02:56:01;4.20;;;1.27;;
60917;SDS011;46792;38.854;-9.384;2023-12-07T02:58:02;7.55;;;1.75;;
60917;SDS011;46792;38.854;-9.384;2023-12-07T03:00:04;6.18;;;1.65;;
60917;SDS011;46792;38.854;-9.384;2023-12-07T03:02:08;4.28;;;1.67;;
60917;SDS011;46792;38.854;-9.384;2023-12-07T03:04:09;4.78;;;1.60;;
60917;SDS011;46792;38.854;-9.384;2023-12-07T03:06:10;9.23;;;1.73;;
60917;SDS011;46792;38.854;-9.384;2023-12-07T03:08:10;8.40;;;1.63;;
60917;SDS011;46792;38.854;-9.384;2023-12-07T03:10:11;3.55;;;1.50;;
60917;SDS011;46792;38.854;-9.384;2023-12-07T03:12:12;9.20;;;1.83;;
60917;SDS011;46792;38.854;-9.384;2023-12-07T03:14:12;4.30;;;1.88;;
60917;SDS011;46792;38.854;-9.384;2023-12-07T03:16:13;4.63;;;1.77;;
60917;SDS011;46792;38.854;-9.384;2023-12-07T03:18:14;6.13;;;1.63;;
60917;SDS011;46792;38.854;-9.384;2023-12-07T03:20:14;9.75;;;2.03;;
60917;SDS011;46792;38.854;-9.384;2023-12-07T03:22:15;8.68;;;1.90;;
60917;SDS011;46792;38.854;-9.384;2023-12-07T03:24:16;5.57;;;1.40;;
60917;SDS011;46792;38.854;-9.384;2023-12-07T03:26:17;7.85;;;1.65;;
60917;SDS011;46792;38.854;-9.384;2023-12-07T03:28:17;9.20;;;2.30;;
60917;SDS011;46792;38.854;-9.384;2023-12-07T03:30:18;6.22;;;1.88;;
60917;SDS011;46792;38.854;-9.384;2023-12-07T03:32:18;9.88;;;1.92;;
60917;SDS011;46792;38.854;-9.384;2023-12-07T03:34:19;11.20;;;1.75;;
60917;SDS011;46792;38.854;-9.384;2023-12-07T03:36:20;9.82;;;2.38;;
60917;SDS011;46792;38.854;-9.384;2023-12-07T03:38:23;5.03;;;1.83;;
60917;SDS011;46792;38.854;-9.384;2023-12-07T03:40:24;4.53;;;1.92;;
60917;SDS011;46792;38.854;-9.384;2023-12-07T03:42:24;10.27;;;3.50;;
60917;SDS011;46792;38.854;-9.384;2023-12-07T03:44:25;6.93;;;2.75;;
60917;SDS011;46792;38.854;-9.384;2023-12-07T03:46:26;4.78;;;3.00;;
60917;SDS011;46792;38.854;-9.384;2023-12-07T03:48:27;4.70;;;2.72;;
60917;SDS011;46792;38.854;-9.384;2023-12-07T03:50:28;8.73;;;2.63;;
60917;SDS011;46792;38.854;-9.384;2023-12-07T03:52:28;9.48;;;3.13;;
60917;SDS011;46792;38.854;-9.384;2023-12-07T03:54:29;9.27;;;3.40;;
60917;SDS011;46792;38.854;-9.384;2023-12-07T03:56:30;7.60;;;3.45;;
60917;SDS011;46792;38.854;-9.384;2023-12-07T03:58:31;7.88;;;3.75;;
60917;SDS011;46792;38.854;-9.384;2023-12-07T04:00:31;9.98;;;4.18;;
60917;SDS011;46792;38.854;-9.384;2023-12-07T04:02:32;5.32;;;2.70;;
60917;SDS011;46792;38.854;-9.384;2023-12-07T04:04:33;10.32;;;3.55;;
60917;SDS011;46792;38.854;-9.384;2023-12-07T04:06:34;5.18;;;3.47;;
60917;SDS011;46792;38.854;-9.384;2023-12-07T04:08:34;10.25;;;3.35;;
60917;SDS011;46792;38.854;-9.384;2023-12-07T04:10:35;15.23;;;4.05;;
60917;SDS011;46792;38.854;-9.384;2023-12-07T04:12:36;15.50;;;3.60;;
60917;SDS011;46792;38.854;-9.384;2023-12-07T04:14:37;6.38;;;3.35;;
60917;SDS011;46792;38.854;-9.384;2023-12-07T04:16:37;10.38;;;4.20;;
60917;SDS011;46792;38.854;-9.384;2023-12-07T04:18:38;7.32;;;2.95;;
60917;SDS011;46792;38.854;-9.384;2023-12-07T04:20:39;6.07;;;3.45;;
60917;SDS011;46792;38.854;-9.384;2023-12-07T04:22:39;10.07;;;2.83;;
60917;SDS011;46792;38.854;-9.384;2023-12-07T04:24:40;8.80;;;2.65;;
60917;SDS011;46792;38.854;-9.384;2023-12-07T04:26:41;8.85;;;2.60;;
60917;SDS011;46792;38.854;-9.384;2023-12-07T04:28:41;10.25;;;2.13;;
60917;SDS011;46792;38.854;-9.384;2023-12-07T04:30:42;14.18;;;2.20;;
60917;SDS011;46792;38.854;-9.384;2023-12-07T04:32:43;9.20;;;2.28;;
60917;SDS011;46792;38.854;-9.384;2023-12-07T04:34:43;7.05;;;1.92;;
60917;SDS011;46792;38.854;-9.384;2023-12-07T04:36:44;10.85;;;1.83;;
60917;SDS011;46792;38.854;-9.384;2023-12-07T04:38:44;9.57;;;2.20;;
60917;SDS011;46792;38.854;-9.384;2023-12-07T04:40:45;15.88;;;2.45;;
60917;SDS011;46792;38.854;-9.384;2023-12-07T04:42:46;9.57;;;1.65;;
60917;SDS011;46792;38.854;-9.384;2023-12-07T04:44:46;17.20;;;5.97;;
60917;SDS011;46792;38.854;-9.384;2023-12-07T04:46:47;15.60;;;3.80;;
60917;SDS011;46792;38.854;-9.384;2023-12-07T04:48:48;8.02;;;1.70;;
60917;SDS011;46792;38.854;-9.384;2023-12-07T04:50:48;16.27;;;2.20;;
60917;SDS011;46792;38.854;-9.384;2023-12-07T04:52:49;11.82;;;2.50;;
60917;SDS011;46792;38.854;-9.384;2023-12-07T04:54:50;11.68;;;2.08;;
60917;SDS011;46792;38.854;-9.384;2023-12-07T04:56:50;14.68;;;2.30;;
60917;SDS011;46792;38.854;-9.384;2023-12-07T04:58:51;8.90;;;2.50;;
60917;SDS011;46792;38.854;-9.384;2023-12-07T05:00:52;10.27;;;3.00;;
60917;SDS011;46792;38.854;-9.384;2023-12-07T05:02:52;11.40;;;3.28;;
60917;SDS011;46792;38.854;-9.384;2023-12-07T05:04:53;17.25;;;3.22;;
60917;SDS011;46792;38.854;-9.384;2023-12-07T05:06:54;8.82;;;3.03;;
60917;SDS011;46792;38.854;-9.384;2023-12-07T05:08:54;12.32;;;3.20;;
60917;SDS011;46792;38.854;-9.384;2023-12-07T05:10:55;16.35;;;4.10;;
60917;SDS011;46792;38.854;-9.384;2023-12-07T05:12:55;14.30;;;4.45;;
60917;SDS011;46792;38.854;-9.384;2023-12-07T05:14:57;16.85;;;3.95;;
60917;SDS011;46792;38.854;-9.384;2023-12-07T05:16:57;15.00;;;4.32;;
60917;SDS011;46792;38.854;-9.384;2023-12-07T05:18:58;23.67;;;4.05;;
60917;SDS011;46792;38.854;-9.384;2023-12-07T05:20:59;13.45;;;3.58;;
60917;SDS011;46792;38.854;-9.384;2023-12-07T05:23:00;11.45;;;4.45;;
60917;SDS011;46792;38.854;-9.384;2023-12-07T05:25:00;13.25;;;4.43;;
60917;SDS011;46792;38.854;-9.384;2023-12-07T05:27:01;14.90;;;3.20;;
60917;SDS011;46792;38.854;-9.384;2023-12-07T05:29:02;13.55;;;3.20;;
60917;SDS011;46792;38.854;-9.384;2023-12-07T05:31:02;19.10;;;2.88;;
60917;SDS011;46792;38.854;-9.384;2023-12-07T05:33:03;8.98;;;2.58;;
60917;SDS011;46792;38.854;-9.384;2023-12-07T05:35:04;12.60;;;2.75;;
60917;SDS011;46792;38.854;-9.384;2023-12-07T05:37:06;8.90;;;2.50;;
60917;SDS011;46792;38.854;-9.384;2023-12-07T05:39:06;19.80;;;2.83;;
60917;SDS011;46792;38.854;-9.384;2023-12-07T05:41:07;8.45;;;2.88;;
60917;SDS011;46792;38.854;-9.384;2023-12-07T05:43:08;20.67;;;3.78;;
60917;SDS011;46792;38.854;-9.384;2023-12-07T05:45:08;10.48;;;2.35;;
60917;SDS011;46792;38.854;-9.384;2023-12-07T05:47:10;14.05;;;2.60;;
60917;SDS011;46792;38.854;-9.384;2023-12-07T05:49:10;4.55;;;2.08;;
60917;SDS011;46792;38.854;-9.384;2023-12-07T05:51:15;12.45;;;1.90;;
60917;SDS011;46792;38.854;-9.384;2023-12-07T05:53:17;10.38;;;2.00;;
60917;SDS011;46792;38.854;-9.384;2023-12-07T05:55:17;21.42;;;3.20;;
60917;SDS011;46792;38.854;-9.384;2023-12-07T05:57:18;11.50;;;2.65;;
60917;SDS011;46792;38.854;-9.384;2023-12-07T05:59:18;11.00;;;1.67;;
60917;SDS011;46792;38.854;-9.384;2023-12-07T06:01:19;15.07;;;2.15;;
60917;SDS011;46792;38.854;-9.384;2023-12-07T06:03:20;8.32;;;2.80;;
60917;SDS011;46792;38.854;-9.384;2023-12-07T06:05:20;13.27;;;2.22;;
60917;SDS011;46792;38.854;-9.384;2023-12-07T06:07:21;16.25;;;2.65;;
60917;SDS011;46792;38.854;-9.384;2023-12-07T06:09:22;13.65;;;2.25;;
60917;SDS011;46792;38.854;-9.384;2023-12-07T06:11:23;11.57;;;2.72;;
60917;SDS011;46792;38.854;-9.384;2023-12-07T06:13:23;14.43;;;2.25;;
60917;SDS011;46792;38.854;-9.384;2023-12-07T06:15:24;14.13;;;3.90;;
60917;SDS011;46792;38.854;-9.384;2023-12-07T06:17:25;12.60;;;1.95;;
60917;SDS011;46792;38.854;-9.384;2023-12-07T06:19:25;12.85;;;1.90;;
60917;SDS011;46792;38.854;-9.384;2023-12-07T06:21:26;18.27;;;2.08;;
60917;SDS011;46792;38.854;-9.384;2023-12-07T06:23:29;7.00;;;1.73;;
60917;SDS011;46792;38.854;-9.384;2023-12-07T06:25:30;15.60;;;3.60;;
60917;SDS011;46792;38.854;-9.384;2023-12-07T06:27:31;10.70;;;2.95;;
60917;SDS011;46792;38.854;-9.384;2023-12-07T06:29:33;9.05;;;2.60;;
60917;SDS011;46792;38.854;-9.384;2023-12-07T06:31:34;15.45;;;3.30;;
60917;SDS011;46792;38.854;-9.384;2023-12-07T06:33:34;22.20;;;3.47;;
60917;SDS011;46792;38.854;-9.384;2023-12-07T06:35:35;22.50;;;3.25;;
60917;SDS011;46792;38.854;-9.384;2023-12-07T06:37:36;11.57;;;2.70;;
60917;SDS011;46792;38.854;-9.384;2023-12-07T06:39:37;14.23;;;2.85;;
60917;SDS011;46792;38.854;-9.384;2023-12-07T06:41:37;16.25;;;3.13;;
60917;SDS011;46792;38.854;-9.384;2023-12-07T06:43:38;26.42;;;3.65;;
60917;SDS011;46792;38.854;-9.384;2023-12-07T06:45:39;11.40;;;3.83;;
60917;SDS011;46792;38.854;-9.384;2023-12-07T06:47:40;14.95;;;3.55;;
60917;SDS011;46792;38.854;-9.384;2023-12-07T06:49:42;26.55;;;4.30;;
60917;SDS011;46792;38.854;-9.384;2023-12-07T06:51:43;17.42;;;3.63;;
60917;SDS011;46792;38.854;-9.384;2023-12-07T06:53:43;20.45;;;3.40;;
60917;SDS011;46792;38.854;-9.384;2023-12-07T06:55:44;18.77;;;3.33;;
60917;SDS011;46792;38.854;-9.384;2023-12-07T06:57:45;19.58;;;3.78;;
60917;SDS011;46792;38.854;-9.384;2023-12-07T06:59:45;12.85;;;2.78;;
60917;SDS011;46792;38.854;-9.384;2023-12-07T07:01:49;9.70;;;3.17;;
60917;SDS011;46792;38.854;-9.384;2023-12-07T07:03:50;23.65;;;4.10;;
60917;SDS011;46792;38.854;-9.384;2023-12-07T07:05:50;24.45;;;3.90;;
60917;SDS011;46792;38.854;-9.384;2023-12-07T07:07:54;15.67;;;2.70;;
60917;SDS011;46792;38.854;-9.384;2023-12-07T07:09:55;14.38;;;3.03;;
60917;SDS011;46792;38.854;-9.384;2023-12-07T07:11:57;20.65;;;2.50;;
60917;SDS011;46792;38.854;-9.384;2023-12-07T07:13:58;25.67;;;3.70;;
60917;SDS011;46792;38.854;-9.384;2023-12-07T07:15:59;26.58;;;4.10;;
60917;SDS011;46792;38.854;-9.384;2023-12-07T07:17:59;18.48;;;3.80;;
60917;SDS011;46792;38.854;-9.384;2023-12-07T07:20:01;11.00;;;3.47;;
60917;SDS011;46792;38.854;-9.384;2023-12-07T07:22:01;17.70;;;2.80;;
60917;SDS011;46792;38.854;-9.384;2023-12-07T07:24:02;19.20;;;3.38;;
60917;SDS011;46792;38.854;-9.384;2023-12-07T07:26:03;36.28;;;4.18;;
60917;SDS011;46792;38.854;-9.384;2023-12-07T07:28:04;11.65;;;2.83;;
60917;SDS011;46792;38.854;-9.384;2023-12-07T07:30:05;14.45;;;3.97;;
60917;SDS011;46792;38.854;-9.384;2023-12-07T07:32:06;18.63;;;3.42;;
60917;SDS011;46792;38.854;-9.384;2023-12-07T07:34:07;21.48;;;3.65;;
60917;SDS011;46792;38.854;-9.384;2023-12-07T07:36:08;18.58;;;4.38;;
60917;SDS011;46792;38.854;-9.384;2023-12-07T07:38:09;13.75;;;2.83;;
60917;SDS011;46792;38.854;-9.384;2023-12-07T07:40:10;12.73;;;3.13;;
60917;SDS011;46792;38.854;-9.384;2023-12-07T07:42:11;16.20;;;3.10;;
60917;SDS011;46792;38.854;-9.384;2023-12-07T07:44:12;19.08;;;3.00;;
60917;SDS011;46792;38.854;-9.384;2023-12-07T07:46:13;17.90;;;2.70;;
60917;SDS011;46792;38.854;-9.384;2023-12-07T07:48:14;13.73;;;2.10;;
60917;SDS011;46792;38.854;-9.384;2023-12-07T07:50:15;14.45;;;2.20;;
60917;SDS011;46792;38.854;-9.384;2023-12-07T07:52:16;27.08;;;2.45;;
60917;SDS011;46792;38.854;-9.384;2023-12-07T07:54:17;16.35;;;2.13;;
60917;SDS011;46792;38.854;-9.384;2023-12-07T07:56:18;20.42;;;2.78;;
60917;SDS011;46792;38.854;-9.384;2023-12-07T07:58:18;11.98;;;1.75;;
60917;SDS011;46792;38.854;-9.384;2023-12-07T08:00:19;13.63;;;1.80;;
60917;SDS011;46792;38.854;-9.384;2023-12-07T08:02:20;19.98;;;2.65;;
60917;SDS011;46792;38.854;-9.384;2023-12-07T08:04:22;9.32;;;2.03;;
60917;SDS011;46792;38.854;-9.384;2023-12-07T08:06:22;14.02;;;2.05;;
60917;SDS011;46792;38.854;-9.384;2023-12-07T08:08:23;17.05;;;2.58;;
60917;SDS011;46792;38.854;-9.384;2023-12-07T08:10:26;16.98;;;2.05;;
60917;SDS011;46792;38.854;-9.384;2023-12-07T08:12:26;22.15;;;3.85;;
60917;SDS011;46792;38.854;-9.384;2023-12-07T08:14:27;17.83;;;2.53;;
60917;SDS011;46792;38.854;-9.384;2023-12-07T08:16:28;19.25;;;2.42;;
60917;SDS011;46792;38.854;-9.384;2023-12-07T08:18:28;18.17;;;2.30;;
60917;SDS011;46792;38.854;-9.384;2023-12-07T08:20:29;22.65;;;1.95;;
60917;SDS011;46792;38.854;-9.384;2023-12-07T08:22:30;11.77;;;2.10;;
60917;SDS011;46792;38.854;-9.384;2023-12-07T08:24:30;9.80;;;1.85;;
60917;SDS011;46792;38.854;-9.384;2023-12-07T08:26:31;26.67;;;2.83;;
60917;SDS011;46792;38.854;-9.384;2023-12-07T08:28:32;11.25;;;1.77;;
60917;SDS011;46792;38.854;-9.384;2023-12-07T08:30:33;23.10;;;2.55;;
60917;SDS011;46792;38.854;-9.384;2023-12-07T08:32:34;13.20;;;2.53;;
60917;SDS011;46792;38.854;-9.384;2023-12-07T08:34:34;8.45;;;2.05;;
60917;SDS011;46792;38.854;-9.384;2023-12-07T08:36:37;9.80;;;1.90;;
60917;SDS011;46792;38.854;-9.384;2023-12-07T08:38:38;9.82;;;2.10;;
60917;SDS011;46792;38.854;-9.384;2023-12-07T08:40:38;13.75;;;2.60;;
60917;SDS011;46792;38.854;-9.384;2023-12-07T08:42:39;12.30;;;2.22;;
60917;SDS011;46792;38.854;-9.384;2023-12-07T08:44:40;10.32;;;2.00;;
60917;SDS011;46792;38.854;-9.384;2023-12-07T08:46:43;14.52;;;2.70;;
60917;SDS011;46792;38.854;-9.384;2023-12-07T08:48:45;13.70;;;2.30;;
60917;SDS011;46792;38.854;-9.384;2023-12-07T08:50:45;10.38;;;2.10;;
60917;SDS011;46792;38.854;-9.384;2023-12-07T08:52:46;8.57;;;1.77;;
60917;SDS011;46792;38.854;-9.384;2023-12-07T08:54:47;12.05;;;1.70;;
60917;SDS011;46792;38.854;-9.384;2023-12-07T08:56:47;8.88;;;1.40;;
60917;SDS011;46792;38.854;-9.384;2023-12-07T08:58:48;7.63;;;2.00;;
60917;SDS011;46792;38.854;-9.384;2023-12-07T09:00:49;10.02;;;1.27;;
60917;SDS011;46792;38.854;-9.384;2023-12-07T09:02:49;10.50;;;1.70;;
60917;SDS011;46792;38.854;-9.384;2023-12-07T09:04:50;9.90;;;1.52;;
60917;SDS011;46792;38.854;-9.384;2023-12-07T09:06:52;10.23;;;2.40;;
60917;SDS011;46792;38.854;-9.384;2023-12-07T09:08:52;9.82;;;2.35;;
60917;SDS011;46792;38.854;-9.384;2023-12-07T09:10:53;9.25;;;2.03;;
60917;SDS011;46792;38.854;-9.384;2023-12-07T09:12:54;8.70;;;1.75;;
60917;SDS011;46792;38.854;-9.384;2023-12-07T09:14:55;11.13;;;2.00;;
60917;SDS011;46792;38.854;-9.384;2023-12-07T09:16:56;19.20;;;2.20;;
60917;SDS011;46792;38.854;-9.384;2023-12-07T09:18:56;15.45;;;2.83;;
60917;SDS011;46792;38.854;-9.384;2023-12-07T09:20:57;18.35;;;3.25;;
60917;SDS011;46792;38.854;-9.384;2023-12-07T09:22:58;22.80;;;2.83;;
60917;SDS011;46792;38.854;-9.384;2023-12-07T09:24:58;24.17;;;2.85;;
60917;SDS011;46792;38.854;-9.384;2023-12-07T09:27:02;18.33;;;3.00;;
60917;SDS011;46792;38.854;-9.384;2023-12-07T09:29:03;23.83;;;2.75;;
60917;SDS011;46792;38.854;-9.384;2023-12-07T09:31:03;13.32;;;2.25;;
60917;SDS011;46792;38.854;-9.384;2023-12-07T09:33:04;17.65;;;2.97;;
60917;SDS011;46792;38.854;-9.384;2023-12-07T09:35:05;12.15;;;2.17;;
60917;SDS011;46792;38.854;-9.384;2023-12-07T09:37:19;18.25;;;2.45;;
60917;SDS011;46792;38.854;-9.384;2023-12-07T09:39:20;16.08;;;3.10;;
60917;SDS011;46792;38.854;-9.384;2023-12-07T09:41:20;16.10;;;3.33;;
60917;SDS011;46792;38.854;-9.384;2023-12-07T09:43:23;14.32;;;2.20;;
60917;SDS011;46792;38.854;-9.384;2023-12-07T09:45:24;19.13;;;2.28;;
60917;SDS011;46792;38.854;-9.384;2023-12-07T09:47:26;15.85;;;2.42;;
60917;SDS011;46792;38.854;-9.384;2023-12-07T09:49:29;11.50;;;2.75;;
60917;SDS011;46792;38.854;-9.384;2023-12-07T09:51:30;13.25;;;2.25;;
60917;SDS011;46792;38.854;-9.384;2023-12-07T09:53:33;17.42;;;3.25;;
60917;SDS011;46792;38.854;-9.384;2023-12-07T09:55:35;16.30;;;2.47;;
60917;SDS011;46792;38.854;-9.384;2023-12-07T09:57:39;9.82;;;1.85;;
60917;SDS011;46792;38.854;-9.384;2023-12-07T09:59:40;12.40;;;2.25;;
60917;SDS011;46792;38.854;-9.384;2023-12-07T10:01:41;8.35;;;2.00;;
60917;SDS011;46792;38.854;-9.384;2023-12-07T10:03:41;4.75;;;2.28;;
60917;SDS011;46792;38.854;-9.384;2023-12-07T10:05:55;5.97;;;1.75;;
60917;SDS011;46792;38.854;-9.384;2023-12-07T10:08:00;11.15;;;1.42;;
60917;SDS011;46792;38.854;-9.384;2023-12-07T10:10:00;5.72;;;1.42;;
60917;SDS011;46792;38.854;-9.384;2023-12-07T10:12:04;7.28;;;1.65;;
60917;SDS011;46792;38.854;-9.384;2023-12-07T10:14:06;6.07;;;1.70;;
60917;SDS011;46792;38.854;-9.384;2023-12-07T10:16:16;9.23;;;1.75;;
60917;SDS011;46792;38.854;-9.384;2023-12-07T10:18:22;12.80;;;2.03;;
60917;SDS011;46792;38.854;-9.384;2023-12-07T10:20:24;13.45;;;2.15;;
60917;SDS011;46792;38.854;-9.384;2023-12-07T10:22:26;10.27;;;2.63;;
60917;SDS011;46792;38.854;-9.384;2023-12-07T10:24:27;10.20;;;1.85;;
60917;SDS011;46792;38.854;-9.384;2023-12-07T10:26:28;9.40;;;1.85;;
60917;SDS011;46792;38.854;-9.384;2023-12-07T10:28:30;9.38;;;1.60;;
60917;SDS011;46792;38.854;-9.384;2023-12-07T10:30:31;6.68;;;1.35;;
60917;SDS011;46792;38.854;-9.384;2023-12-07T10:32:32;11.27;;;2.42;;
60917;SDS011;46792;38.854;-9.384;2023-12-07T10:34:36;6.45;;;1.63;;
60917;SDS011;46792;38.854;-9.384;2023-12-07T10:36:37;8.95;;;1.88;;
60917;SDS011;46792;38.854;-9.384;2023-12-07T10:38:38;10.00;;;2.38;;
60917;SDS011;46792;38.854;-9.384;2023-12-07T10:40:41;5.37;;;1.60;;
60917;SDS011;46792;38.854;-9.384;2023-12-07T10:42:42;10.68;;;1.58;;
60917;SDS011;46792;38.854;-9.384;2023-12-07T10:44:47;11.35;;;2.40;;
60917;SDS011;46792;38.854;-9.384;2023-12-07T10:46:53;9.68;;;1.83;;
60917;SDS011;46792;38.854;-9.384;2023-12-07T10:49:03;5.88;;;2.00;;
60917;SDS011;46792;38.854;-9.384;2023-12-07T10:51:06;11.18;;;1.65;;
60917;SDS011;46792;38.854;-9.384;2023-12-07T10:53:15;14.70;;;1.85;;
60917;SDS011;46792;38.854;-9.384;2023-12-07T10:55:30;4.88;;;1.75;;
60917;SDS011;46792;38.854;-9.384;2023-12-07T10:57:41;16.23;;;2.70;;
60917;SDS011;46792;38.854;-9.384;2023-12-07T10:59:43;14.65;;;1.70;;
60917;SDS011;46792;38.854;-9.384;2023-12-07T11:01:44;7.22;;;1.70;;
60917;SDS011;46792;38.854;-9.384;2023-12-07T11:03:46;12.60;;;3.35;;
60917;SDS011;46792;38.854;-9.384;2023-12-07T11:05:51;12.45;;;1.85;;
60917;SDS011;46792;38.854;-9.384;2023-12-07T11:08:07;3.95;;;1.27;;
60917;SDS011;46792;38.854;-9.384;2023-12-07T11:10:14;26.20;;;14.82;;
60917;SDS011;46792;38.854;-9.384;2023-12-07T11:12:25;6.00;;;2.00;;
60917;SDS011;46792;38.854;-9.384;2023-12-07T11:14:34;8.55;;;1.35;;
60917;SDS011;46792;38.854;-9.384;2023-12-07T11:16:35;8.18;;;1.33;;
60917;SDS011;46792;38.854;-9.384;2023-12-07T11:18:37;7.22;;;1.80;;
60917;SDS011;46792;38.854;-9.384;2023-12-07T11:20:41;11.27;;;2.00;;
60917;SDS011;46792;38.854;-9.384;2023-12-07T11:22:44;10.38;;;1.92;;
60917;SDS011;46792;38.854;-9.384;2023-12-07T11:24:52;11.55;;;3.00;;
60917;SDS011;46792;38.854;-9.384;2023-12-07T11:26:58;35.60;;;2.78;;
60917;SDS011;46792;38.854;-9.384;2023-12-07T11:28:59;18.90;;;4.22;;
60917;SDS011;46792;38.854;-9.384;2023-12-07T11:31:00;9.63;;;2.42;;
60917;SDS011;46792;38.854;-9.384;2023-12-07T11:33:04;9.68;;;1.85;;
60917;SDS011;46792;38.854;-9.384;2023-12-07T11:35:07;12.82;;;2.65;;
60917;SDS011;46792;38.854;-9.384;2023-12-07T11:37:15;17.15;;;2.63;;
60917;SDS011;46792;38.854;-9.384;2023-12-07T11:39:17;22.02;;;3.15;;
60917;SDS011;46792;38.854;-9.384;2023-12-07T11:41:18;13.80;;;4.07;;
60917;SDS011;46792;38.854;-9.384;2023-12-07T11:45:42;17.98;;;2.70;;
60917;SDS011;46792;38.854;-9.384;2023-12-07T11:48:05;13.63;;;3.03;;
60917;SDS011;46792;38.854;-9.384;2023-12-07T11:50:07;24.05;;;3.33;;
60917;SDS011;46792;38.854;-9.384;2023-12-07T11:52:19;17.95;;;3.05;;
60917;SDS011;46792;38.854;-9.384;2023-12-07T11:54:21;28.88;;;3.70;;
60917;SDS011;46792;38.854;-9.384;2023-12-07T11:56:23;21.52;;;5.07;;
60917;SDS011;46792;38.854;-9.384;2023-12-07T11:58:33;21.25;;;3.03;;
60917;SDS011;46792;38.854;-9.384;2023-12-07T12:00:34;26.25;;;4.20;;